createdAt,value
2018-10-21T00:00:30.166Z,43.57
2018-10-21T00:03:15.242Z,38.67
2018-10-21T00:05:52.404Z,40.40
2018-10-21T00:08:32.344Z,37.53
2018-10-21T00:11:08.925Z,40.50
2018-10-21T00:13:49.325Z,43.40
2018-10-21T00:16:28.182Z,45.17
2018-10-21T00:19:06.630Z,40.70
2018-10-21T00:21:43.674Z,35.90
2018-10-21T00:24:21.578Z,38.40
2018-10-21T00:27:00.208Z,32.83
2018-10-21T00:29:38.296Z,34.70
2018-10-21T00:32:17.932Z,42.07
2018-10-21T00:34:57.792Z,39.00
2018-10-21T00:37:34.863Z,36.23
2018-10-21T00:40:12.041Z,36.37
2018-10-21T00:42:51.041Z,33.60
2018-10-21T00:45:33.248Z,32.40
2018-10-21T00:48:13.053Z,33.43
2018-10-21T00:50:56.147Z,30.23
2018-10-21T00:53:36.066Z,32.50
2018-10-21T00:56:13.226Z,32.80
2018-10-21T00:58:50.269Z,27.87
2018-10-21T01:01:30.731Z,33.40
2018-10-21T01:04:13.185Z,41.93
2018-10-21T01:06:55.015Z,27.80
2018-10-21T01:09:32.703Z,33.37
2018-10-21T01:12:14.172Z,48.17
2018-10-21T01:14:57.178Z,33.33
2018-10-21T01:17:34.996Z,32.37
2018-10-21T01:20:14.043Z,34.53
2018-10-21T01:22:57.904Z,29.33
2018-10-21T01:25:33.897Z,33.90
2018-10-21T01:28:15.211Z,30.80
2018-10-21T01:30:53.258Z,33.63
2018-10-21T01:33:30.661Z,46.23
2018-10-21T01:36:08.161Z,40.93
2018-10-21T01:38:44.660Z,28.70
2018-10-21T01:41:22.058Z,29.73
2018-10-21T01:43:59.617Z,35.70
2018-10-21T01:46:41.400Z,31.13
2018-10-21T01:49:18.573Z,38.33
2018-10-21T01:51:56.883Z,25.60
2018-10-21T01:54:33.049Z,29.97
2018-10-21T01:57:09.675Z,25.10
2018-10-21T01:59:49.357Z,34.57
2018-10-21T02:02:26.673Z,35.43
2018-10-21T02:05:02.909Z,22.53
2018-10-21T02:07:39.626Z,26.30
2018-10-21T02:10:16.089Z,23.00
2018-10-21T02:12:53.480Z,25.17
2018-10-21T02:15:30.316Z,28.20
2018-10-21T02:18:07.444Z,28.60
2018-10-21T02:20:44.502Z,32.37
2018-10-21T02:23:21.257Z,25.57
2018-10-21T02:26:00.650Z,29.03
2018-10-21T02:28:37.213Z,33.93
2018-10-21T02:31:14.281Z,30.40
2018-10-21T02:33:50.673Z,39.43
2018-10-21T02:36:27.780Z,32.70
2018-10-21T02:39:07.721Z,28.30
2018-10-21T02:41:58.260Z,39.43
2018-10-21T02:44:35.833Z,26.77
2018-10-21T02:47:12.725Z,28.73
2018-10-21T02:49:49.874Z,29.53
2018-10-21T02:52:25.983Z,33.50
2018-10-21T02:55:03.815Z,28.23
2018-10-21T02:57:40.805Z,29.00
2018-10-21T03:00:16.863Z,27.80
2018-10-21T03:02:56.461Z,33.60
2018-10-21T03:05:34.164Z,30.40
2018-10-21T03:08:10.866Z,28.23
2018-10-21T03:10:49.717Z,29.60
2018-10-21T03:13:26.413Z,32.87
2018-10-21T03:16:03.829Z,38.03
2018-10-21T03:18:40.697Z,37.03
2018-10-21T03:21:18.461Z,43.97
2018-10-21T03:23:57.194Z,35.60
2018-10-21T03:26:33.447Z,36.93
2018-10-21T03:29:11.853Z,32.20
2018-10-21T03:31:50.669Z,31.03
2018-10-21T03:34:29.833Z,32.93
2018-10-21T03:37:07.071Z,31.10
2018-10-21T03:39:44.282Z,31.73
2018-10-21T03:42:21.430Z,30.57
2018-10-21T03:45:01.413Z,31.67
2018-10-21T03:47:39.142Z,30.83
2018-10-21T03:50:18.768Z,27.23
2018-10-21T03:52:58.704Z,34.80
2018-10-21T03:55:42.352Z,29.80
2018-10-21T03:58:18.828Z,27.97
2018-10-21T04:00:56.334Z,29.70
2018-10-21T04:03:33.720Z,26.80
2018-10-21T04:06:13.364Z,29.00
2018-10-21T04:08:50.768Z,26.87
2018-10-21T04:11:27.365Z,24.20
2018-10-21T04:14:04.489Z,29.80
2018-10-21T04:16:40.417Z,29.00
2018-10-21T04:19:16.819Z,28.60
2018-10-21T04:21:54.809Z,30.50
2018-10-21T04:24:32.417Z,26.93
2018-10-21T04:27:09.742Z,29.97
2018-10-21T04:29:48.261Z,29.00
2018-10-21T04:32:25.857Z,33.53
2018-10-21T04:35:03.683Z,28.30
2018-10-21T04:38:30.502Z,29.60
2018-10-21T04:41:07.773Z,30.80
2018-10-21T04:43:48.702Z,27.43
2018-10-21T04:46:27.668Z,33.33
2018-10-21T04:49:03.889Z,26.60
2018-10-21T04:51:42.238Z,27.50
2018-10-21T04:54:21.556Z,26.00
2018-10-21T04:56:57.847Z,32.97
2018-10-21T04:59:34.469Z,34.33
2018-10-21T05:02:14.198Z,31.63
2018-10-21T05:04:52.330Z,30.70
2018-10-21T05:07:28.848Z,33.30
2018-10-21T05:10:07.862Z,33.63
2018-10-21T05:12:43.681Z,32.03
2018-10-21T05:15:22.610Z,33.47
2018-10-21T05:18:00.930Z,30.97
2018-10-21T05:20:39.464Z,31.63
2018-10-21T05:23:16.410Z,28.50
2018-10-21T05:25:54.357Z,34.30
2018-10-21T05:28:31.345Z,28.63
2018-10-21T05:31:10.457Z,36.67
2018-10-21T05:33:52.505Z,25.23
2018-10-21T05:36:29.314Z,30.07
2018-10-21T05:39:11.265Z,28.80
2018-10-21T05:41:48.192Z,26.57
2018-10-21T05:44:25.389Z,30.13
2018-10-21T05:47:01.789Z,29.93
2018-10-21T05:49:38.713Z,25.67
2018-10-21T05:52:15.771Z,26.73
2018-10-21T05:54:55.536Z,33.60
2018-10-21T05:57:32.745Z,29.03
2018-10-21T06:00:18.446Z,28.10
2018-10-21T06:02:55.362Z,29.00
2018-10-21T06:05:40.877Z,26.10
2018-10-21T06:08:17.157Z,22.60
2018-10-21T06:10:54.491Z,28.13
2018-10-21T06:13:31.560Z,28.27
2018-10-21T06:16:08.615Z,25.23
2018-10-21T06:18:45.678Z,31.83
2018-10-21T06:21:21.724Z,26.77
2018-10-21T06:23:58.632Z,28.93
2018-10-21T06:26:36.326Z,22.07
2018-10-21T06:29:13.634Z,24.00
2018-10-21T06:31:49.725Z,26.53
2018-10-21T06:34:27.611Z,25.33
2018-10-21T06:37:05.374Z,25.70
2018-10-21T06:39:42.752Z,25.03
2018-10-21T06:42:19.546Z,24.27
2018-10-21T06:44:57.751Z,23.47
2018-10-21T06:47:35.341Z,33.33
2018-10-21T06:50:14.589Z,26.20
2018-10-21T06:52:52.073Z,29.63
2018-10-21T06:55:29.178Z,25.27
2018-10-21T06:58:06.242Z,31.63
2018-10-21T07:00:43.589Z,26.37
2018-10-21T07:03:20.768Z,28.17
2018-10-21T07:06:16.261Z,26.10
2018-10-21T07:08:54.340Z,27.23
2018-10-21T07:11:30.230Z,28.57
2018-10-21T07:14:07.694Z,24.90
2018-10-21T07:16:46.518Z,27.30
2018-10-21T07:19:25.309Z,29.33
2018-10-21T07:22:06.660Z,23.50
2018-10-21T07:24:44.229Z,27.03
2018-10-21T07:27:22.447Z,24.00
2018-10-21T07:30:02.328Z,24.40
2018-10-21T07:32:39.678Z,27.13
2018-10-21T07:35:17.326Z,27.00
2018-10-21T07:37:53.884Z,22.60
2018-10-21T07:40:31.691Z,24.90
2018-10-21T07:43:10.516Z,31.20
2018-10-21T07:45:47.581Z,35.00
2018-10-21T07:48:24.442Z,32.13
2018-10-21T07:51:01.496Z,34.43
2018-10-21T07:53:40.004Z,34.30
2018-10-21T07:56:16.868Z,38.67
2018-10-21T07:58:53.619Z,39.20
2018-10-21T08:01:30.493Z,35.90
2018-10-21T08:04:07.452Z,37.23
2018-10-21T08:08:52.769Z,37.97
2018-10-21T08:11:30.794Z,36.93
2018-10-21T08:14:09.053Z,39.00
2018-10-21T08:16:45.426Z,36.70
2018-10-21T08:19:22.422Z,39.17
2018-10-21T08:22:00.607Z,36.87
2018-10-21T08:24:39.527Z,38.87
2018-10-21T08:27:17.878Z,39.57
2018-10-21T08:29:55.624Z,34.97
2018-10-21T08:32:33.489Z,34.57
2018-10-21T08:35:10.719Z,40.97
2018-10-21T08:37:46.889Z,41.77
2018-10-21T08:40:24.549Z,36.63
2018-10-21T08:43:00.951Z,32.00
2018-10-21T08:45:38.559Z,40.60
2018-10-21T08:48:16.275Z,34.60
2018-10-21T08:50:53.571Z,30.23
2018-10-21T08:53:30.600Z,34.30
2018-10-21T08:56:07.686Z,31.10
2018-10-21T08:58:46.416Z,33.90
2018-10-21T09:01:24.369Z,30.90
2018-10-21T09:04:01.360Z,35.43
2018-10-21T09:06:37.249Z,43.60
2018-10-21T09:09:14.261Z,36.17
2018-10-21T09:11:50.924Z,34.63
2018-10-21T09:14:27.741Z,35.10
2018-10-21T09:17:05.661Z,31.00
2018-10-21T09:19:43.568Z,30.50
2018-10-21T09:22:23.286Z,35.97
2018-10-21T09:25:01.299Z,33.40
2018-10-21T09:27:40.532Z,22.87
2018-10-21T09:30:19.338Z,20.83
2018-10-21T09:32:56.321Z,19.50
2018-10-21T09:35:32.781Z,17.70
2018-10-21T09:38:10.276Z,17.47
2018-10-21T09:40:45.615Z,18.00
2018-10-21T09:43:21.231Z,19.53
2018-10-21T09:45:56.744Z,24.70
2018-10-21T09:48:39.024Z,22.50
2018-10-21T09:51:16.677Z,26.43
2018-10-21T09:53:54.468Z,24.20
2018-10-21T09:56:32.798Z,21.17
2018-10-21T09:59:10.281Z,20.80
2018-10-21T10:01:53.131Z,24.63
2018-10-21T10:04:31.310Z,23.73
2018-10-21T10:07:10.865Z,23.90
2018-10-21T10:09:47.698Z,18.83
2018-10-21T10:12:25.167Z,21.53
2018-10-21T10:15:02.265Z,20.67
2018-10-21T10:17:40.255Z,21.70
2018-10-21T10:20:16.575Z,16.90
2018-10-21T10:22:55.185Z,17.83
2018-10-21T10:25:31.592Z,19.47
2018-10-21T10:28:09.816Z,14.80
2018-10-21T10:30:48.468Z,18.40
2018-10-21T10:33:26.346Z,19.93
2018-10-21T10:36:03.226Z,15.43
2018-10-21T10:38:42.191Z,15.83
2018-10-21T10:41:20.366Z,23.10
2018-10-21T10:43:57.468Z,16.63
2018-10-21T10:46:34.925Z,13.80
2018-10-21T10:49:12.445Z,15.23
2018-10-21T10:51:49.511Z,18.07
2018-10-21T10:54:27.166Z,21.43
2018-10-21T10:57:05.869Z,21.90
2018-10-21T10:59:43.979Z,20.70
2018-10-21T11:02:21.697Z,26.03
2018-10-21T11:04:58.773Z,27.03
2018-10-21T11:07:35.641Z,19.93
2018-10-21T11:10:12.569Z,18.30
2018-10-21T11:12:50.413Z,24.20
2018-10-21T11:15:30.397Z,19.70
2018-10-21T11:18:06.859Z,18.67
2018-10-21T11:20:43.696Z,22.03
2018-10-21T11:23:21.153Z,22.40
2018-10-21T11:25:58.680Z,22.30
2018-10-21T11:28:35.611Z,23.57
2018-10-21T11:31:13.448Z,31.40
2018-10-21T11:33:50.614Z,22.80
2018-10-21T11:36:29.331Z,28.03
2018-10-21T11:39:07.361Z,24.73
2018-10-21T11:41:44.357Z,28.73
2018-10-21T11:44:22.337Z,25.67
2018-10-21T11:47:00.117Z,26.73
2018-10-21T11:49:36.775Z,28.00
2018-10-21T11:52:19.379Z,24.00
2018-10-21T11:54:56.377Z,19.50
2018-10-21T11:57:32.593Z,25.00
2018-10-21T12:00:10.950Z,27.10
2018-10-21T12:02:49.329Z,26.00
2018-10-21T12:05:26.731Z,29.13
2018-10-21T12:08:03.753Z,20.60
2018-10-21T12:10:43.563Z,29.30
2018-10-21T12:13:22.300Z,20.90
2018-10-21T12:16:00.524Z,20.93
2018-10-21T12:18:38.065Z,23.60
2018-10-21T12:21:17.417Z,21.57
2018-10-21T12:23:54.813Z,23.40
2018-10-21T12:26:33.387Z,21.57
2018-10-21T12:29:10.177Z,20.63
2018-10-21T12:31:47.862Z,19.67
2018-10-21T12:34:24.834Z,21.03
2018-10-21T12:37:02.448Z,20.23
2018-10-21T12:39:39.887Z,21.47
2018-10-21T12:42:16.785Z,20.93
2018-10-21T12:44:54.432Z,16.80
2018-10-21T12:47:32.578Z,17.67
2018-10-21T12:50:10.878Z,18.90
2018-10-21T12:52:47.344Z,19.93
2018-10-21T12:55:24.786Z,24.93
2018-10-21T12:58:01.131Z,21.27
2018-10-21T13:00:37.556Z,19.57
2018-10-21T13:03:15.386Z,21.23
2018-10-21T13:05:52.795Z,21.20
2018-10-21T13:08:29.333Z,19.27
2018-10-21T13:11:06.882Z,19.53
2018-10-21T13:13:44.581Z,18.07
2018-10-21T13:16:24.726Z,18.30
2018-10-21T13:19:02.711Z,19.43
2018-10-21T13:21:39.310Z,16.27
2018-10-21T13:24:15.931Z,16.70
2018-10-21T13:26:52.996Z,16.40
2018-10-21T13:29:31.009Z,18.90
2018-10-21T13:32:09.689Z,17.90
2018-10-21T13:34:49.240Z,16.70
2018-10-21T13:37:27.565Z,20.20
2018-10-21T13:40:06.862Z,13.67
2018-10-21T13:42:44.847Z,15.70
2018-10-21T13:45:22.713Z,15.00
2018-10-21T13:48:00.780Z,15.07
2018-10-21T13:50:39.625Z,16.53
2018-10-21T13:53:16.489Z,14.97
2018-10-21T13:55:57.714Z,14.63
2018-10-21T13:58:48.586Z,17.73
2018-10-21T14:01:25.810Z,23.87
2018-10-21T14:04:03.442Z,15.20
2018-10-21T14:06:40.589Z,17.77
2018-10-21T14:09:24.334Z,16.00
2018-10-21T14:12:01.147Z,15.80
2018-10-21T14:14:42.293Z,14.07
2018-10-21T14:17:18.482Z,18.67
2018-10-21T14:20:04.937Z,20.30
2018-10-21T14:22:44.417Z,17.70
2018-10-21T14:25:21.689Z,15.90
2018-10-21T14:27:57.796Z,24.80
2018-10-21T14:30:38.843Z,17.03
2018-10-21T14:33:15.156Z,16.90
2018-10-21T14:35:53.324Z,17.97
2018-10-21T14:38:34.854Z,15.13
2018-10-21T14:41:13.350Z,17.60
2018-10-21T14:43:51.469Z,31.77
2018-10-21T14:46:27.639Z,21.03
2018-10-21T14:49:07.609Z,19.70
2018-10-21T14:51:44.378Z,19.13
2018-10-21T14:54:23.479Z,19.40
2018-10-21T14:57:00.768Z,21.00
2018-10-21T14:59:37.672Z,19.90
2018-10-21T15:02:17.947Z,19.20
2018-10-21T15:04:56.905Z,23.20
2018-10-21T15:07:35.838Z,23.00
2018-10-21T15:10:12.129Z,19.70
2018-10-21T15:12:50.985Z,22.23
2018-10-21T15:15:28.496Z,21.77
2018-10-21T15:18:06.220Z,20.70
2018-10-21T15:20:43.629Z,19.80
2018-10-21T15:23:21.703Z,18.53
2018-10-21T15:25:59.209Z,20.17
2018-10-21T15:28:37.750Z,19.73
2018-10-21T15:31:15.840Z,20.73
2018-10-21T15:33:53.662Z,22.33
2018-10-21T15:36:30.011Z,19.50
2018-10-21T15:39:11.125Z,22.23
2018-10-21T15:41:47.312Z,23.57
2018-10-21T15:44:24.223Z,22.83
2018-10-21T15:47:00.137Z,26.20
2018-10-21T15:49:36.587Z,24.33
2018-10-21T15:52:14.520Z,23.40
2018-10-21T15:54:52.784Z,25.10
2018-10-21T15:57:29.053Z,25.80
2018-10-21T16:00:07.123Z,34.60
2018-10-21T16:02:47.442Z,39.33
2018-10-21T16:05:24.817Z,27.20
2018-10-21T16:08:00.682Z,25.87
2018-10-21T16:10:38.543Z,25.47
2018-10-21T16:13:16.199Z,28.40
2018-10-21T16:15:53.626Z,23.37
2018-10-21T16:18:30.344Z,29.97
2018-10-21T16:21:08.646Z,23.83
2018-10-21T16:23:45.101Z,24.03
2018-10-21T16:26:23.901Z,25.43
2018-10-21T16:29:02.429Z,29.20
2018-10-21T16:31:38.842Z,29.40
2018-10-21T16:34:16.967Z,24.60
2018-10-21T16:36:53.540Z,27.50
2018-10-21T16:39:30.487Z,24.00
2018-10-21T16:42:07.423Z,30.13
2018-10-21T16:44:45.682Z,31.90
2018-10-21T16:47:23.700Z,34.27
2018-10-21T16:50:00.977Z,23.17
2018-10-21T16:52:37.913Z,31.47
2018-10-21T16:55:15.589Z,26.20
2018-10-21T16:57:54.546Z,27.40
2018-10-21T17:00:33.394Z,25.83
2018-10-21T17:03:13.304Z,25.00
2018-10-21T17:05:49.912Z,30.80
2018-10-21T17:08:26.825Z,25.17
2018-10-21T17:11:03.783Z,27.90
2018-10-21T17:13:41.629Z,26.80
2018-10-21T17:16:18.514Z,29.43
2018-10-21T17:18:54.752Z,44.37
2018-10-21T17:21:32.850Z,26.37
2018-10-21T17:24:10.320Z,30.13
2018-10-21T17:26:47.076Z,27.47
2018-10-21T17:29:24.435Z,28.90
2018-10-21T17:32:01.708Z,29.03
2018-10-21T17:34:37.664Z,32.10
2018-10-21T17:37:15.788Z,33.90
2018-10-21T17:39:52.121Z,37.20
2018-10-21T17:42:29.321Z,32.80
2018-10-21T17:45:07.577Z,37.10
2018-10-21T17:47:46.618Z,40.00
2018-10-21T17:50:22.791Z,37.97
2018-10-21T17:53:00.235Z,34.07
2018-10-21T17:55:36.316Z,34.30
2018-10-21T17:58:13.634Z,38.60
2018-10-21T18:00:50.600Z,42.73
2018-10-21T18:03:27.705Z,29.53
2018-10-21T18:06:04.249Z,28.93
2018-10-21T18:08:40.603Z,27.70
2018-10-21T18:11:18.357Z,23.70
2018-10-21T18:13:56.408Z,26.20
2018-10-21T18:16:32.686Z,30.03
2018-10-21T18:19:11.479Z,25.37
2018-10-21T18:21:50.237Z,23.20
2018-10-21T18:24:26.635Z,24.43
2018-10-21T18:27:05.271Z,21.07
2018-10-21T18:29:44.316Z,20.47
2018-10-21T18:32:21.943Z,20.03
2018-10-21T18:34:59.598Z,26.43
2018-10-21T18:37:38.644Z,24.70
2018-10-21T18:40:15.853Z,27.53
2018-10-21T18:42:55.936Z,20.67
2018-10-21T18:45:35.368Z,21.63
2018-10-21T18:48:12.470Z,20.30
2018-10-21T18:50:52.273Z,18.80
2018-10-21T18:53:29.432Z,18.03
2018-10-21T18:56:07.717Z,32.10
2018-10-21T18:58:44.799Z,22.67
2018-10-21T19:01:22.318Z,22.97
2018-10-21T19:04:00.684Z,22.67
2018-10-21T19:06:38.523Z,30.00
2018-10-21T19:09:16.742Z,30.50
2018-10-21T19:11:53.873Z,27.25
2018-10-21T19:14:30.313Z,32.87
2018-10-21T19:17:07.618Z,24.23
2018-10-21T19:19:47.408Z,20.37
2018-10-21T19:22:26.394Z,24.80
2018-10-21T19:25:03.995Z,19.90
2018-10-21T19:27:43.870Z,22.40
2018-10-21T19:30:20.748Z,22.40
2018-10-21T19:33:03.824Z,22.47
2018-10-21T19:35:40.560Z,20.23
2018-10-21T19:38:18.535Z,23.10
2018-10-21T19:40:55.300Z,22.07
2018-10-21T19:43:33.859Z,21.33
2018-10-21T19:46:11.456Z,20.90
2018-10-21T19:48:48.568Z,23.73
2018-10-21T19:51:30.770Z,26.93
2018-10-21T19:54:08.664Z,22.80
2018-10-21T19:56:46.575Z,23.23
2018-10-21T19:59:25.914Z,27.20
2018-10-21T20:02:05.414Z,25.50
2018-10-21T20:04:43.279Z,28.23
2018-10-21T20:07:23.071Z,26.90
2018-10-21T20:09:59.612Z,28.30
2018-10-21T20:12:41.441Z,21.63
2018-10-21T20:15:22.342Z,26.77
2018-10-21T20:17:59.787Z,23.70
2018-10-21T20:20:37.388Z,26.00
2018-10-21T20:23:15.041Z,26.93
2018-10-21T20:25:53.903Z,27.13
2018-10-21T20:28:33.569Z,39.20
2018-10-21T20:31:12.356Z,22.93
2018-10-21T20:33:50.599Z,29.13
2018-10-21T20:36:28.915Z,22.03
2018-10-21T20:39:10.346Z,29.43
2018-10-21T20:41:47.709Z,22.03
2018-10-21T20:44:24.528Z,26.97
2018-10-21T20:47:05.451Z,23.90
2018-10-21T20:49:42.831Z,28.77
2018-10-21T20:52:20.798Z,27.17
2018-10-21T20:54:58.699Z,27.40
2018-10-21T20:57:36.831Z,24.57
2018-10-21T21:00:16.336Z,26.63
2018-10-21T21:02:54.146Z,27.80
2018-10-21T21:05:31.362Z,26.53
2018-10-21T21:08:10.089Z,21.93
2018-10-21T21:10:47.333Z,23.93
2018-10-21T21:13:25.663Z,26.97
2018-10-21T21:16:03.420Z,28.53
2018-10-21T21:18:39.744Z,26.90
2018-10-21T21:21:18.472Z,38.00
2018-10-21T21:23:54.806Z,25.63
2018-10-21T21:26:32.745Z,21.13
2018-10-21T21:29:14.989Z,26.13
2018-10-21T21:31:52.811Z,26.60
2018-10-21T21:34:30.322Z,24.97
2018-10-21T21:37:08.778Z,24.10
2018-10-21T21:39:46.478Z,26.27
2018-10-21T21:42:30.397Z,27.70
2018-10-21T21:45:07.351Z,27.20
2018-10-21T21:47:44.213Z,23.40
2018-10-21T21:50:22.320Z,37.50
2018-10-21T21:53:00.231Z,27.40
2018-10-21T21:55:36.691Z,25.20
2018-10-21T21:58:14.495Z,23.60
2018-10-21T22:00:51.442Z,25.50
2018-10-21T22:03:29.499Z,24.73
2018-10-21T22:06:06.657Z,24.57
2018-10-21T22:08:43.443Z,22.27
2018-10-21T22:11:20.389Z,27.57
2018-10-21T22:13:57.501Z,25.90
2018-10-21T22:16:34.178Z,22.20
2018-10-21T22:19:12.269Z,22.93
2018-10-21T22:21:48.818Z,27.70
2018-10-21T22:24:27.128Z,22.73
2018-10-21T22:27:05.573Z,23.90
2018-10-21T22:29:43.045Z,27.83
2018-10-21T22:32:21.068Z,24.23
2018-10-21T22:35:00.689Z,22.07
2018-10-21T22:37:38.296Z,27.60
2018-10-21T22:40:16.445Z,23.17
2018-10-21T22:42:53.754Z,29.83
2018-10-21T22:45:30.763Z,25.90
2018-10-21T22:48:09.680Z,27.13
2018-10-21T22:50:47.613Z,24.90
2018-10-21T22:53:25.584Z,25.90
2018-10-21T22:56:02.755Z,25.47
2018-10-21T22:58:39.260Z,28.80
2018-10-21T23:01:16.392Z,25.80
2018-10-21T23:03:53.761Z,23.73
2018-10-21T23:06:31.730Z,21.27
2018-10-21T23:09:10.757Z,24.27
2018-10-21T23:11:47.820Z,22.27
2018-10-21T23:14:24.556Z,29.70
2018-10-21T23:17:01.350Z,22.80
2018-10-21T23:19:47.717Z,23.23
2018-10-21T23:22:24.879Z,23.20
2018-10-21T23:25:01.693Z,23.27
2018-10-21T23:27:39.689Z,22.83
2018-10-21T23:30:16.672Z,25.10
2018-10-21T23:32:55.377Z,24.40
2018-10-21T23:35:33.060Z,25.37
2018-10-21T23:38:10.181Z,29.17
2018-10-21T23:40:46.594Z,28.80
2018-10-21T23:43:23.419Z,28.77
2018-10-21T23:46:00.442Z,27.83
2018-10-21T23:48:38.479Z,29.03
2018-10-21T23:51:15.161Z,26.07
2018-10-21T23:53:51.154Z,25.47
2018-10-21T23:56:28.653Z,27.47
2018-10-21T23:59:06.311Z,29.37
